Darstellungsparameter: Aktuell verwendete Einstellungen:
Skalierung der Graphiken ... ?
xyx+y,   Skalierungsfaktor:      Skalierung: Modus: x, Faktor: 1
Darstellungszeitraum ... ?
Vom - - bis: - -   Zeitraum: 25.08.2022 - 25.08.2022
Min/Max/Avg-Anzeige ... ?
Zeige MMA aktuell
Zeige MMA Monat
Zeige MMA alles
Zeige --A aktuell
Zeige --A Monat
Zeige --A alles
Keine MMA-Anzeige
MMA:
Keine MMA-Graphiken
MMA-Basis: 25.08.2022 - 25.08.2022
Quicknavigation für Darstellung... ?
Tage:      1T, 2T, 3T, 5T -1T -2T -3T -5T +1T +2T +3T +5T
Wochen: 1W, 2W, 3W -1W -2W -3W +1W +2W +3W
Monate: 1M, 3M, 6M -1M -3M -6M +1M +3M +6M
Jahre:    1J, 3J, 5J, 10J -1J -3J -5J -10J +1J +3J +5J +10J
Nutze für die Darstellung ... ?
Originaldaten oder Mittelwerte auf ...
Stundenbasis Tagesbasis Wochenbasis
Monatsbasis Jahresbasis      Datenbasis: Original-Daten
Darstellen als:
Statistik (Auto) Statistik J:M      Darstellung:
Zur Graphik,    zurück zur Übersicht aller Sensoren.
 
Tabellarische Datenbersicht: ?
 
Sensor: Nr:Datum:Temp:Abs-Feuchte:Windchill:Wind:
Aussen-T/F 1 25-08-2022 00:00:00 19.4 C 11.01 g/m*3 19.4 C 0 km/h
2 25-08-2022 00:05:00 19.3 C 11.11 g/m*3 19.3 C 0 km/h
3 25-08-2022 00:10:00 19.2 C 11.05 g/m*3 19.2 C 0 km/h
4 25-08-2022 00:15:00 19.1 C 10.98 g/m*3 19.1 C 0 km/h
5 25-08-2022 00:20:00 18.9 C 10.85 g/m*3 18.9 C 0 km/h
6 25-08-2022 00:25:00 18.8 C 10.79 g/m*3 18.8 C 0 km/h
7 25-08-2022 00:30:00 18.8 C 10.95 g/m*3 18.8 C 0 km/h
8 25-08-2022 00:35:00 18.6 C 10.82 g/m*3 18.6 C 0 km/h
9 25-08-2022 00:40:00 18.5 C 10.92 g/m*3 18.5 C 0 km/h
10 25-08-2022 00:45:00 18.4 C 10.7 g/m*3 18.4 C 0 km/h
11 25-08-2022 00:50:00 18.3 C 10.79 g/m*3 18.3 C 0 km/h
12 25-08-2022 00:55:00 18.3 C 10.63 g/m*3 18.3 C 0 km/h
13 25-08-2022 01:00:00 18.2 C 10.72 g/m*3 18.2 C 0 km/h
14 25-08-2022 01:05:00 18.2 C 10.72 g/m*3 18.2 C 0 km/h
15 25-08-2022 01:10:00 18.1 C 10.66 g/m*3 18.1 C 0 km/h
16 25-08-2022 01:15:00 18.1 C 10.82 g/m*3 18.1 C 0 km/h
17 25-08-2022 01:20:00 18 C 10.75 g/m*3 18 C 0 km/h
18 25-08-2022 01:25:00 17.9 C 10.69 g/m*3 17.9 C 0 km/h
19 25-08-2022 01:30:00 17.9 C 10.69 g/m*3 17.9 C 0 km/h
20 25-08-2022 01:35:00 17.9 C 10.69 g/m*3 17.9 C 0 km/h
21 25-08-2022 01:40:00 17.9 C 10.69 g/m*3 17.9 C 0 km/h
22 25-08-2022 01:45:00 17.9 C 10.69 g/m*3 17.9 C 0 km/h
23 25-08-2022 01:50:00 17.8 C 10.62 g/m*3 17.8 C 0 km/h
24 25-08-2022 01:55:00 17.8 C 10.47 g/m*3 17.8 C 0 km/h
25 25-08-2022 02:00:00 17.7 C 10.56 g/m*3 17.7 C 0 km/h
Sensor: Nr:Datum:Temp:Abs-Feuchte:Windchill:Wind:
Aussen-T/F 26 25-08-2022 02:05:00 17.7 C 10.56 g/m*3 17.7 C 0 km/h
27 25-08-2022 02:10:00 17.7 C 10.56 g/m*3 17.7 C 0 km/h
28 25-08-2022 02:15:00 17.6 C 10.65 g/m*3 17.6 C 0 km/h
29 25-08-2022 02:20:00 17.5 C 10.59 g/m*3 17.5 C 0 km/h
30 25-08-2022 02:25:00 17.4 C 10.52 g/m*3 17.4 C 0 km/h
31 25-08-2022 02:30:00 17.4 C 10.67 g/m*3 17.4 C 0 km/h
32 25-08-2022 02:35:00 17.3 C 10.75 g/m*3 17.3 C 0 km/h
33 25-08-2022 02:40:00 17.2 C 10.54 g/m*3 17.2 C 0 km/h
34 25-08-2022 02:45:00 17.1 C 10.63 g/m*3 17.1 C 0 km/h
35 25-08-2022 02:50:00 17 C 10.56 g/m*3 17 C 0 km/h
36 25-08-2022 02:55:00 16.9 C 10.5 g/m*3 16.9 C 0 km/h
37 25-08-2022 03:00:00 16.8 C 10.44 g/m*3 16.8 C 0 km/h
38 25-08-2022 03:05:00 16.8 C 10.44 g/m*3 16.8 C 0 km/h
39 25-08-2022 03:10:00 16.8 C 10.44 g/m*3 16.8 C 0 km/h
40 25-08-2022 03:15:00 16.7 C 10.52 g/m*3 16.7 C 0 km/h
41 25-08-2022 03:20:00 16.7 C 10.52 g/m*3 16.7 C 0 km/h
42 25-08-2022 03:25:00 16.6 C 10.59 g/m*3 16.6 C 0 km/h
43 25-08-2022 03:30:00 16.4 C 10.47 g/m*3 16.4 C 0 km/h
44 25-08-2022 03:35:00 16.3 C 10.41 g/m*3 16.3 C 0 km/h
45 25-08-2022 03:40:00 16.3 C 10.54 g/m*3 16.3 C 0 km/h
46 25-08-2022 03:45:00 16.2 C 10.48 g/m*3 16.2 C 0 km/h
47 25-08-2022 03:50:00 16.1 C 10.55 g/m*3 16.1 C 0 km/h
48 25-08-2022 03:55:00 16.1 C 10.55 g/m*3 16.1 C 0 km/h
49 25-08-2022 04:00:00 15.9 C 10.43 g/m*3 15.9 C 0 km/h
50 25-08-2022 04:05:00 15.8 C 10.36 g/m*3 15.8 C 0 km/h
Sensor: Nr:Datum:Temp:Abs-Feuchte:Windchill:Wind:
Aussen-T/F 51 25-08-2022 04:10:00 15.8 C 10.5 g/m*3 15.8 C 0 km/h
52 25-08-2022 04:15:00 15.7 C 10.44 g/m*3 15.7 C 0 km/h
53 25-08-2022 04:20:00 15.6 C 10.37 g/m*3 15.6 C 0 km/h
54 25-08-2022 04:25:00 15.6 C 10.37 g/m*3 15.6 C 0 km/h
55 25-08-2022 04:30:00 15.6 C 10.37 g/m*3 15.6 C 0 km/h
56 25-08-2022 04:35:00 15.5 C 10.44 g/m*3 15.5 C 0 km/h
57 25-08-2022 04:40:00 15.5 C 10.57 g/m*3 15.5 C 0 km/h
58 25-08-2022 04:45:00 15.4 C 10.51 g/m*3 15.4 C 0 km/h
59 25-08-2022 04:50:00 15.4 C 10.51 g/m*3 15.4 C 0 km/h
60 25-08-2022 04:55:00 15.3 C 10.45 g/m*3 15.3 C 0 km/h
61 25-08-2022 05:00:00 15.3 C 10.45 g/m*3 15.3 C 0 km/h
62 25-08-2022 05:05:00 15.2 C 10.51 g/m*3 15.2 C 0 km/h
63 25-08-2022 05:10:00 15.2 C 10.51 g/m*3 15.2 C 0 km/h
64 25-08-2022 05:15:00 15.1 C 10.45 g/m*3 15.1 C 0 km/h
65 25-08-2022 05:20:00 15.1 C 10.45 g/m*3 15.1 C 0 km/h
66 25-08-2022 05:25:00 15 C 10.39 g/m*3 15 C 0 km/h
67 25-08-2022 05:30:00 14.9 C 10.32 g/m*3 14.9 C 0 km/h
68 25-08-2022 05:35:00 14.9 C 10.32 g/m*3 14.9 C 0 km/h
69 25-08-2022 05:40:00 14.8 C 10.39 g/m*3 14.8 C 0 km/h
70 25-08-2022 05:45:00 14.8 C 10.39 g/m*3 14.8 C 0 km/h
71 25-08-2022 05:50:00 14.8 C 10.39 g/m*3 14.8 C 0 km/h
72 25-08-2022 05:55:00 14.7 C 10.32 g/m*3 14.7 C 0 km/h
73 25-08-2022 06:00:00 14.7 C 10.45 g/m*3 14.7 C 0 km/h
74 25-08-2022 06:05:00 14.7 C 10.45 g/m*3 14.7 C 0 km/h
75 25-08-2022 06:10:00 14.6 C 10.39 g/m*3 14.6 C 0 km/h
Sensor: Nr:Datum:Temp:Abs-Feuchte:Windchill:Wind:
Aussen-T/F 76 25-08-2022 06:15:00 14.6 C 10.39 g/m*3 14.6 C 0 km/h
77 25-08-2022 06:20:00 14.5 C 10.32 g/m*3 14.5 C 0 km/h
78 25-08-2022 06:25:00 14.4 C 10.26 g/m*3 14.4 C 0 km/h
79 25-08-2022 06:30:00 14.4 C 10.26 g/m*3 14.4 C 0 km/h
80 25-08-2022 06:35:00 14.3 C 10.32 g/m*3 14.3 C 0 km/h
81 25-08-2022 06:40:00 14.3 C 10.32 g/m*3 14.3 C 0 km/h
82 25-08-2022 06:45:00 14.3 C 10.32 g/m*3 14.3 C 0 km/h
83 25-08-2022 06:50:00 14.3 C 10.32 g/m*3 14.3 C 0 km/h
84 25-08-2022 06:55:00 14.2 C 10.26 g/m*3 14.2 C 0 km/h
85 25-08-2022 07:00:00 14.2 C 10.38 g/m*3 14.2 C 0 km/h
86 25-08-2022 07:05:00 14.2 C 10.38 g/m*3 14.2 C 0 km/h
87 25-08-2022 07:10:00 14.2 C 10.38 g/m*3 14.2 C 0 km/h
88 25-08-2022 07:15:00 14.2 C 10.38 g/m*3 14.2 C 0 km/h
89 25-08-2022 07:20:00 14.3 C 10.44 g/m*3 14.3 C 0 km/h
90 25-08-2022 07:25:00 14.3 C 10.57 g/m*3 14.3 C 0 km/h
91 25-08-2022 07:30:00 14.3 C 10.57 g/m*3 14.3 C 0 km/h
92 25-08-2022 07:35:00 14.3 C 10.57 g/m*3 14.3 C 0 km/h
93 25-08-2022 07:40:00 14.3 C 10.57 g/m*3 14.3 C 0 km/h
94 25-08-2022 07:45:00 14.4 C 10.63 g/m*3 14.4 C 0 km/h
95 25-08-2022 07:50:00 14.4 C 10.63 g/m*3 14.4 C 0 km/h
96 25-08-2022 07:55:00 14.4 C 10.63 g/m*3 14.4 C 0 km/h
97 25-08-2022 08:00:00 14.5 C 10.7 g/m*3 14.5 C 0 km/h
98 25-08-2022 08:05:00 14.6 C 10.89 g/m*3 14.6 C 0 km/h
99 25-08-2022 08:10:00 14.6 C 10.89 g/m*3 14.6 C 0 km/h
100 25-08-2022 08:15:00 14.7 C 10.95 g/m*3 14.7 C 0 km/h
Sensor: Nr:Datum:Temp:Abs-Feuchte:Windchill:Wind:
Aussen-T/F 101 25-08-2022 08:20:00 14.7 C 10.95 g/m*3 14.7 C 0 km/h
102 25-08-2022 08:25:00 14.8 C 11.02 g/m*3 14.8 C 0 km/h
103 25-08-2022 08:30:00 14.9 C 11.09 g/m*3 14.9 C 0 km/h
104 25-08-2022 08:35:00 14.9 C 11.09 g/m*3 14.9 C 0 km/h
105 25-08-2022 08:40:00 15.1 C 11.22 g/m*3 15.1 C 0 km/h
106 25-08-2022 08:45:00 15.1 C 11.22 g/m*3 15.1 C 0 km/h
107 25-08-2022 08:50:00 15.2 C 11.29 g/m*3 15.2 C 0 km/h
108 25-08-2022 08:55:00 15.3 C 11.36 g/m*3 15.3 C 0 km/h
109 25-08-2022 09:00:00 15.4 C 11.43 g/m*3 15.4 C 0 km/h
110 25-08-2022 09:05:00 15.5 C 11.5 g/m*3 15.5 C 0 km/h
111 25-08-2022 09:10:00 15.6 C 11.57 g/m*3 15.6 C 0 km/h
112 25-08-2022 09:15:00 15.7 C 11.64 g/m*3 15.7 C 0 km/h
113 25-08-2022 09:20:00 15.9 C 11.78 g/m*3 15.9 C 0 km/h
114 25-08-2022 09:25:00 16 C 11.85 g/m*3 16 C 0 km/h
115 25-08-2022 09:30:00 16.2 C 12 g/m*3 16.2 C 0 km/h
116 25-08-2022 09:35:00 16.4 C 12.14 g/m*3 16.4 C 0 km/h
117 25-08-2022 09:40:00 16.6 C 12.29 g/m*3 16.6 C 0 km/h
118 25-08-2022 09:45:00 16.8 C 12.44 g/m*3 16.8 C 0 km/h
119 25-08-2022 09:50:00 16.9 C 12.37 g/m*3 16.9 C 0 km/h
120 25-08-2022 09:55:00 17.2 C 12.59 g/m*3 17.2 C 0 km/h
121 25-08-2022 10:00:00 17.4 C 12.6 g/m*3 17.4 C 0 km/h
122 25-08-2022 10:05:00 17.6 C 12.75 g/m*3 17.6 C 0 km/h
123 25-08-2022 10:10:00 17.9 C 12.83 g/m*3 17.9 C 0 km/h
124 25-08-2022 10:15:00 18.2 C 12.9 g/m*3 18.2 C 0 km/h
125 25-08-2022 10:20:00 18.4 C 13.05 g/m*3 18.4 C 1.6 km/h
Sensor: Nr:Datum:Temp:Abs-Feuchte:Windchill:Wind:
Aussen-T/F 126 25-08-2022 10:25:00 18.8 C 13.21 g/m*3 18.8 C 0 km/h
127 25-08-2022 10:30:00 19.2 C 13.36 g/m*3 19.2 C 0 km/h
128 25-08-2022 10:35:00 19.6 C 13.34 g/m*3 19.6 C 0 km/h
129 25-08-2022 10:40:00 20 C 13.48 g/m*3 20 C 0 km/h
130 25-08-2022 10:45:00 20.4 C 13.62 g/m*3 20.4 C 0 km/h
131 25-08-2022 10:50:00 20.8 C 13.76 g/m*3 20.8 C 0 km/h
132 25-08-2022 10:55:00 21.1 C 13.82 g/m*3 21.1 C 0 km/h
133 25-08-2022 11:00:00 21.4 C 13.87 g/m*3 21.4 C 0 km/h
134 25-08-2022 11:05:00 21.8 C 14.2 g/m*3 21.8 C 1.6 km/h
135 25-08-2022 11:10:00 22.2 C 14.33 g/m*3 22.2 C 3.2 km/h
136 25-08-2022 11:15:00 23.1 C 14.26 g/m*3 23.1 C 4.8 km/h
137 25-08-2022 11:20:00 24 C 14.14 g/m*3 24 C 8.1 km/h
138 25-08-2022 11:25:00 24.9 C 14.19 g/m*3 24.9 C 9.7 km/h
139 25-08-2022 11:30:00 25.8 C 14.2 g/m*3 25.8 C 14.5 km/h
140 25-08-2022 11:35:00 26.3 C 13.86 g/m*3 26.3 C 8.1 km/h
141 25-08-2022 11:40:00 26.7 C 14.17 g/m*3 26.7 C 1.6 km/h
142 25-08-2022 11:45:00 26.9 C 14.33 g/m*3 26.9 C 6.4 km/h
143 25-08-2022 11:50:00 27.2 C 13.79 g/m*3 27.2 C 8.1 km/h
144 25-08-2022 11:55:00 27.4 C 13.94 g/m*3 27.4 C 8.1 km/h
145 25-08-2022 12:00:00 27.7 C 13.91 g/m*3 27.7 C 8.1 km/h
146 25-08-2022 12:05:00 27.8 C 13.72 g/m*3 27.8 C 6.4 km/h
147 25-08-2022 12:10:00 28 C 13.87 g/m*3 28 C 8.1 km/h
148 25-08-2022 12:15:00 28.3 C 13.55 g/m*3 28.3 C 4.8 km/h
149 25-08-2022 12:20:00 28.5 C 13.42 g/m*3 28.5 C 8.1 km/h
150 25-08-2022 12:25:00 28.8 C 13.64 g/m*3 28.8 C 9.7 km/h
Sensor: Nr:Datum:Temp:Abs-Feuchte:Windchill:Wind:
Aussen-T/F 151 25-08-2022 12:30:00 28.9 C 13.14 g/m*3 28.9 C 8.1 km/h
152 25-08-2022 12:35:00 29.2 C 13.36 g/m*3 29.2 C 11.3 km/h
153 25-08-2022 12:40:00 29.3 C 13.43 g/m*3 29.3 C 12.9 km/h
154 25-08-2022 12:45:00 29.6 C 13.06 g/m*3 29.6 C 8.1 km/h
155 25-08-2022 12:50:00 29.8 C 12.6 g/m*3 29.8 C 8.1 km/h
156 25-08-2022 12:55:00 29.9 C 12.67 g/m*3 29.9 C 16.1 km/h
157 25-08-2022 13:00:00 30 C 12.74 g/m*3 30 C 6.4 km/h
158 25-08-2022 13:05:00 30.2 C 12.87 g/m*3 30.2 C 12.9 km/h
159 25-08-2022 13:10:00 30.2 C 12.87 g/m*3 30.2 C 9.7 km/h
160 25-08-2022 13:15:00 30.3 C 12.94 g/m*3 30.3 C 8.1 km/h
161 25-08-2022 13:20:00 30.4 C 13.01 g/m*3 30.4 C 12.9 km/h
162 25-08-2022 13:25:00 30.5 C 12.77 g/m*3 30.5 C 14.5 km/h
163 25-08-2022 13:30:00 30.6 C 12.84 g/m*3 30.6 C 8.1 km/h
164 25-08-2022 13:35:00 30.7 C 12.91 g/m*3 30.7 C 6.4 km/h
165 25-08-2022 13:40:00 30.6 C 13.16 g/m*3 30.6 C 6.4 km/h
166 25-08-2022 13:45:00 30.3 C 12.94 g/m*3 30.3 C 9.7 km/h
167 25-08-2022 13:50:00 30.2 C 12.87 g/m*3 30.2 C 8.1 km/h
168 25-08-2022 13:55:00 30.2 C 13.18 g/m*3 30.2 C 1.6 km/h
169 25-08-2022 14:00:00 30.3 C 13.25 g/m*3 30.3 C 6.4 km/h
170 25-08-2022 14:05:00 30.6 C 12.84 g/m*3 30.6 C 8.1 km/h
171 25-08-2022 14:10:00 30.8 C 12.98 g/m*3 30.8 C 8.1 km/h
172 25-08-2022 14:15:00 30.9 C 12.73 g/m*3 30.9 C 11.3 km/h
173 25-08-2022 14:20:00 30.8 C 12.66 g/m*3 30.8 C 12.9 km/h
174 25-08-2022 14:25:00 30.8 C 12.66 g/m*3 30.8 C 14.5 km/h
175 25-08-2022 14:30:00 30.9 C 12.73 g/m*3 30.9 C 12.9 km/h
Sensor: Nr:Datum:Temp:Abs-Feuchte:Windchill:Wind:
Aussen-T/F 176 25-08-2022 14:35:00 30.8 C 12.98 g/m*3 30.8 C 11.3 km/h
177 25-08-2022 14:40:00 30.9 C 12.73 g/m*3 30.9 C 14.5 km/h
178 25-08-2022 14:45:00 31.1 C 12.87 g/m*3 31.1 C 12.9 km/h
179 25-08-2022 14:50:00 30.9 C 12.73 g/m*3 30.9 C 9.7 km/h
180 25-08-2022 14:55:00 30.9 C 12.73 g/m*3 30.9 C 1.6 km/h
181 25-08-2022 15:00:00 30.7 C 12.28 g/m*3 30.7 C 4.8 km/h
182 25-08-2022 15:05:00 30.8 C 12.66 g/m*3 30.8 C 8.1 km/h
183 25-08-2022 15:10:00 31.3 C 12.36 g/m*3 31.3 C 6.4 km/h
184 25-08-2022 15:15:00 31.7 C 12.62 g/m*3 31.7 C 14.5 km/h
185 25-08-2022 15:20:00 31.9 C 12.76 g/m*3 31.9 C 11.3 km/h
186 25-08-2022 15:25:00 32 C 12.83 g/m*3 32 C 14.5 km/h
187 25-08-2022 15:30:00 31.7 C 12.62 g/m*3 31.7 C 11.3 km/h
188 25-08-2022 15:35:00 31.5 C 12.49 g/m*3 31.5 C 17.7 km/h
189 25-08-2022 15:40:00 31.2 C 12.62 g/m*3 31.2 C 11.3 km/h
190 25-08-2022 15:45:00 31.3 C 12.36 g/m*3 31.3 C 9.7 km/h
191 25-08-2022 15:50:00 31.8 C 12.69 g/m*3 31.8 C 8.1 km/h
192 25-08-2022 15:55:00 32.4 C 12.41 g/m*3 32.4 C 8.1 km/h
193 25-08-2022 16:00:00 32.8 C 12.33 g/m*3 32.8 C 9.7 km/h
194 25-08-2022 16:05:00 32.9 C 12.39 g/m*3 32.9 C 12.9 km/h
195 25-08-2022 16:10:00 32.7 C 12.26 g/m*3 32.7 C 12.9 km/h
196 25-08-2022 16:15:00 32.7 C 12.26 g/m*3 32.7 C 14.5 km/h
197 25-08-2022 16:20:00 32.6 C 12.2 g/m*3 32.6 C 8.1 km/h
198 25-08-2022 16:25:00 32.4 C 12.07 g/m*3 32.4 C 3.2 km/h
199 25-08-2022 16:30:00 32.1 C 12.22 g/m*3 32.1 C 6.4 km/h
200 25-08-2022 16:35:00 31.9 C 12.42 g/m*3 31.9 C 8.1 km/h
Sensor: Nr:Datum:Temp:Abs-Feuchte:Windchill:Wind:
Aussen-T/F 201 25-08-2022 16:40:00 32 C 12.49 g/m*3 32 C 1.6 km/h
202 25-08-2022 16:45:00 32.3 C 12.35 g/m*3 32.3 C 8.1 km/h
203 25-08-2022 16:50:00 32.8 C 11.98 g/m*3 32.8 C 9.7 km/h
204 25-08-2022 16:55:00 33 C 12.46 g/m*3 33 C 8.1 km/h
205 25-08-2022 17:00:00 33.4 C 12.36 g/m*3 33.4 C 8.1 km/h
206 25-08-2022 17:05:00 33.6 C 12.49 g/m*3 33.6 C 4.8 km/h
207 25-08-2022 17:10:00 33.9 C 12.32 g/m*3 33.9 C 6.4 km/h
208 25-08-2022 17:15:00 34 C 12.38 g/m*3 34 C 6.4 km/h
209 25-08-2022 17:20:00 33.9 C 12.32 g/m*3 33.9 C 6.4 km/h
210 25-08-2022 17:25:00 33.8 C 12.25 g/m*3 33.8 C 8.1 km/h
211 25-08-2022 17:30:00 33.9 C 12.32 g/m*3 33.9 C 4.8 km/h
212 25-08-2022 17:35:00 34.2 C 12.51 g/m*3 34.2 C 8.1 km/h
213 25-08-2022 17:40:00 34.2 C 12.51 g/m*3 34.2 C 9.7 km/h
214 25-08-2022 17:45:00 34.2 C 12.51 g/m*3 34.2 C 8.1 km/h
215 25-08-2022 17:50:00 34.1 C 12.07 g/m*3 34.1 C 6.4 km/h
216 25-08-2022 17:55:00 33.9 C 12.32 g/m*3 33.9 C 9.7 km/h
217 25-08-2022 18:00:00 33.8 C 12.25 g/m*3 33.8 C 8.1 km/h
218 25-08-2022 18:05:00 33.4 C 12.36 g/m*3 33.4 C 9.7 km/h
219 25-08-2022 18:10:00 33.3 C 12.3 g/m*3 33.3 C 6.4 km/h
220 25-08-2022 18:15:00 33.2 C 12.59 g/m*3 33.2 C 6.4 km/h
221 25-08-2022 18:20:00 33.3 C 12.3 g/m*3 33.3 C 6.4 km/h
222 25-08-2022 18:25:00 33.1 C 12.53 g/m*3 33.1 C 8.1 km/h
223 25-08-2022 18:30:00 32.9 C 12.39 g/m*3 32.9 C 9.7 km/h
224 25-08-2022 18:35:00 32.7 C 12.61 g/m*3 32.7 C 9.7 km/h
225 25-08-2022 18:40:00 32.5 C 12.48 g/m*3 32.5 C 6.4 km/h
Sensor: Nr:Datum:Temp:Abs-Feuchte:Windchill:Wind:
Aussen-T/F 226 25-08-2022 18:45:00 32.3 C 12.35 g/m*3 32.3 C 9.7 km/h
227 25-08-2022 18:50:00 32 C 12.49 g/m*3 32 C 6.4 km/h
228 25-08-2022 18:55:00 31.8 C 12.36 g/m*3 31.8 C 8.1 km/h
229 25-08-2022 19:00:00 31.4 C 12.42 g/m*3 31.4 C 8.1 km/h
230 25-08-2022 19:05:00 31.3 C 12.68 g/m*3 31.3 C 4.8 km/h
231 25-08-2022 19:10:00 31.2 C 12.29 g/m*3 31.2 C 9.7 km/h
232 25-08-2022 19:15:00 31.1 C 12.55 g/m*3 31.1 C 4.8 km/h
233 25-08-2022 19:20:00 30.9 C 12.41 g/m*3 30.9 C 4.8 km/h
234 25-08-2022 19:25:00 30.8 C 12.98 g/m*3 30.8 C 4.8 km/h
235 25-08-2022 19:30:00 30.7 C 12.6 g/m*3 30.7 C 4.8 km/h
236 25-08-2022 19:35:00 30.7 C 14.17 g/m*3 30.7 C 1.6 km/h
237 25-08-2022 19:40:00 30.7 C 13.86 g/m*3 30.7 C 1.6 km/h
238 25-08-2022 19:45:00 30.6 C 14.09 g/m*3 30.6 C 1.6 km/h
239 25-08-2022 19:50:00 30.4 C 14.25 g/m*3 30.4 C 0 km/h
240 25-08-2022 19:55:00 30.2 C 13.79 g/m*3 30.2 C 0 km/h
241 25-08-2022 20:00:00 29.9 C 13.87 g/m*3 29.9 C 1.6 km/h
242 25-08-2022 20:05:00 29.6 C 13.65 g/m*3 29.6 C 4.8 km/h
243 25-08-2022 20:10:00 29 C 13.79 g/m*3 29 C 1.6 km/h
244 25-08-2022 20:15:00 28.5 C 13.7 g/m*3 28.5 C 1.6 km/h
245 25-08-2022 20:20:00 27.9 C 13.52 g/m*3 27.9 C 3.2 km/h
246 25-08-2022 20:25:00 27.3 C 13.61 g/m*3 27.3 C 1.6 km/h
247 25-08-2022 20:30:00 26.7 C 13.42 g/m*3 26.7 C 1.6 km/h
248 25-08-2022 20:35:00 26.1 C 13.46 g/m*3 26.1 C 3.2 km/h
249 25-08-2022 20:40:00 25.6 C 13.33 g/m*3 25.6 C 3.2 km/h
250 25-08-2022 20:45:00 25.2 C 13.04 g/m*3 25.2 C 1.6 km/h
Sensor: Nr:Datum:Temp:Abs-Feuchte:Windchill:Wind:
Aussen-T/F 251 25-08-2022 20:50:00 24.8 C 12.97 g/m*3 24.8 C 3.2 km/h
252 25-08-2022 20:55:00 24.6 C 13.05 g/m*3 24.6 C 3.2 km/h
253 25-08-2022 21:00:00 24.3 C 12.83 g/m*3 24.3 C 1.6 km/h
254 25-08-2022 21:05:00 24.2 C 12.98 g/m*3 24.2 C 1.6 km/h
255 25-08-2022 21:10:00 23.9 C 12.98 g/m*3 23.9 C 3.2 km/h
256 25-08-2022 21:15:00 23.8 C 12.91 g/m*3 23.8 C 4.8 km/h
257 25-08-2022 21:20:00 23.6 C 12.97 g/m*3 23.6 C 4.8 km/h
258 25-08-2022 21:25:00 23.4 C 12.83 g/m*3 23.4 C 3.2 km/h
259 25-08-2022 21:30:00 23.3 C 12.75 g/m*3 23.3 C 3.2 km/h
260 25-08-2022 21:35:00 23.3 C 12.75 g/m*3 23.3 C 0 km/h
261 25-08-2022 21:40:00 23.2 C 12.89 g/m*3 23.2 C 0 km/h
262 25-08-2022 21:45:00 23.1 C 13.02 g/m*3 23.1 C 1.6 km/h
263 25-08-2022 21:50:00 22.9 C 12.88 g/m*3 22.9 C 3.2 km/h
264 25-08-2022 21:55:00 22.7 C 12.93 g/m*3 22.7 C 1.6 km/h
265 25-08-2022 22:00:00 22.6 C 12.66 g/m*3 22.6 C 0 km/h
266 25-08-2022 22:05:00 22.4 C 12.71 g/m*3 22.4 C 1.6 km/h
267 25-08-2022 22:10:00 22.3 C 12.83 g/m*3 22.3 C 0 km/h
268 25-08-2022 22:15:00 22.2 C 12.76 g/m*3 22.2 C 0 km/h
269 25-08-2022 22:20:00 22.1 C 12.69 g/m*3 22.1 C 0 km/h
270 25-08-2022 22:25:00 22.1 C 12.88 g/m*3 22.1 C 0 km/h
271 25-08-2022 22:30:00 22 C 12.62 g/m*3 22 C 0 km/h
272 25-08-2022 22:35:00 21.9 C 12.74 g/m*3 21.9 C 0 km/h
273 25-08-2022 22:40:00 21.8 C 12.66 g/m*3 21.8 C 0 km/h
274 25-08-2022 22:45:00 21.6 C 12.71 g/m*3 21.6 C 0 km/h
275 25-08-2022 22:50:00 21.5 C 12.45 g/m*3 21.5 C 0 km/h
Sensor: Nr:Datum:Temp:Abs-Feuchte:Windchill:Wind:
Aussen-T/F 276 25-08-2022 22:55:00 21.3 C 12.49 g/m*3 21.3 C 0 km/h
277 25-08-2022 23:00:00 21.2 C 12.6 g/m*3 21.2 C 0 km/h
278 25-08-2022 23:05:00 21.1 C 12.53 g/m*3 21.1 C 0 km/h
279 25-08-2022 23:10:00 21.1 C 12.53 g/m*3 21.1 C 0 km/h
280 25-08-2022 23:15:00 21 C 12.64 g/m*3 21 C 0 km/h
281 25-08-2022 23:20:00 20.9 C 12.57 g/m*3 20.9 C 0 km/h
282 25-08-2022 23:25:00 20.8 C 12.31 g/m*3 20.8 C 0 km/h
283 25-08-2022 23:30:00 20.8 C 12.49 g/m*3 20.8 C 0 km/h
284 25-08-2022 23:35:00 20.7 C 12.6 g/m*3 20.7 C 0 km/h
285 25-08-2022 23:40:00 20.5 C 12.28 g/m*3 20.5 C 0 km/h
286 25-08-2022 23:45:00 20.4 C 12.38 g/m*3 20.4 C 0 km/h
287 25-08-2022 23:50:00 20.3 C 12.49 g/m*3 20.3 C 0 km/h
288 25-08-2022 23:55:00 20.2 C 12.41 g/m*3 20.2 C 0 km/h

Legende:
   Min
   Max


Maximal/Minimal-Werte vom 25.08.2022 - 25.08.2022

Sensor Min Max Avg
Temp
(Aussen-T/F)
14.2 °C
25-08-2022  06:55:00
34.2 °C
25-08-2022  17:35:00
22.91 °C
Abs-Feuchte
(Aussen-T/F)
10.26 g/m*3
25-08-2022  06:25:00
14.33 g/m*3
25-08-2022  11:10:00
11.96 g/m*3
Windchill
(Aussen-T/F)
14.2 C
25-08-2022  06:55:00
34.2 C
25-08-2022  17:35:00
22.83 C

Die Daten stammen von einer Davis Vantage Pro 2 Wetter-Station und werden unter Linux mit der Software wview2wettercgi und aufbereitet. Alle Angaben erfolgen ohne Gewähr für ihre Vollständigkeit oder Richtigkeit.
Kontakt: Rainer Krienke krienke@uni-koblenz.de . Meine Webseiten an der Uni Koblenz oder privat.
Version: $Revision: 0.78 $